Anniston Metropolitan Airport
KANB : now visible

Aeroporto :











RITROVATECI SU...

 
LOGIN :

Iscrizione | Disclaimer

   EN    FR    IT 

 









Sommario :    VFR   VFR Marginale   IFR   IFR Intensivo   IFR Molto Intensivo
Visibilità : 
Base nubi : 
>= 8 km
>= 3000ft
5 / 8 km
1000 / 3000 ft
1500m / 5 km
500 / 1000 ft
800 / 1500m
200 / 500 ft
< 800m
< 200 ft
Simboli :   Temporali  Nebbia  Neve Forte  Precipitazioni Forti  Vento > 20 kt






- Altitudine del aeroporto : 612 ft
- Codice IATA : ANB


KANB - Anniston Metropolitan

ULTIMO METAR :
  • 040253Z AUTO 00000KT 10SM FEW100 13/09 A2999 RMK AO2 SLP153 T01280094 53005

METARs OBSOLETI :
  • 040153Z AUTO 00000KT 10SM BKN120 15/09 A2997 RMK AO2 SLP148 T01500094
  • 040053Z AUTO 00000KT 10SM CLR 17/10 A2996 RMK AO2 SLP146 T01720100

TAF KANB
Valido dal 04 a 00 ore il 05 a 00 ore UTC


032320Z 0400/0424 VRB04KT P6SM SCT100



MetMap, La meteo Aeronautica in un colpo d'occhio ! - Copyright ORBIFLY Dicembre 2007 - Disclaimer

ORBIFLY MET'MAP TEAM :

Programmazione e sviluppo : Alexandra Zaïnal
Concezione : Baudouin d'Aumeries
Aiuto per la programmazione : Marc-Olivier Méhu
Supporto tecnico e logistico : Manuel Goepfert
Aiuto per la traduzione : Arnaldo La Scala

Contatto : metmap@orbifly.com




FONTI E CREDITI :

   NOAA       Earth
Advisory